sensor_id;sensor_type;location;lat;lon;timestamp;pressure;altitude;pressure_sealevel;temperature;humidity
22862;BME280;11598;50.652;6.172;2023-04-25T00:05:27;95861.94;;;4.19;100.00
22862;BME280;11598;50.652;6.172;2023-04-25T00:15:27;95857.16;;;4.13;100.00
22862;BME280;11598;50.652;6.172;2023-04-25T00:25:30;95863.56;;;4.06;100.00
22862;BME280;11598;50.652;6.172;2023-04-25T00:35:30;95859.38;;;4.05;100.00
22862;BME280;11598;50.652;6.172;2023-04-25T00:55:33;95858.63;;;4.02;100.00
22862;BME280;11598;50.652;6.172;2023-04-25T01:05:36;95853.56;;;4.01;100.00
22862;BME280;11598;50.652;6.172;2023-04-25T01:15:36;95856.03;;;4.02;100.00
22862;BME280;11598;50.652;6.172;2023-04-25T01:25:37;95853.00;;;3.96;100.00
22862;BME280;11598;50.652;6.172;2023-04-25T01:35:38;95874.84;;;3.89;100.00
22862;BME280;11598;50.652;6.172;2023-04-25T01:45:38;95865.06;;;3.79;100.00
22862;BME280;11598;50.652;6.172;2023-04-25T01:55:42;95859.38;;;3.74;100.00
22862;BME280;11598;50.652;6.172;2023-04-25T02:05:43;95874.38;;;3.66;100.00
22862;BME280;11598;50.652;6.172;2023-04-25T02:15:43;95876.63;;;3.56;100.00
22862;BME280;11598;50.652;6.172;2023-04-25T02:25:43;95871.84;;;3.50;100.00
22862;BME280;11598;50.652;6.172;2023-04-25T02:35:44;95877.22;;;3.46;100.00
22862;BME280;11598;50.652;6.172;2023-04-25T02:45:44;95877.06;;;3.49;100.00
22862;BME280;11598;50.652;6.172;2023-04-25T02:55:44;95873.94;;;3.44;100.00
22862;BME280;11598;50.652;6.172;2023-04-25T03:05:45;95874.84;;;3.43;100.00
22862;BME280;11598;50.652;6.172;2023-04-25T03:15:46;95881.38;;;3.48;100.00
22862;BME280;11598;50.652;6.172;2023-04-25T03:25:47;95888.09;;;3.51;100.00
22862;BME280;11598;50.652;6.172;2023-04-25T03:35:47;95889.00;;;3.50;100.00
22862;BME280;11598;50.652;6.172;2023-04-25T03:45:47;95886.28;;;3.37;100.00
22862;BME280;11598;50.652;6.172;2023-04-25T03:55:48;95899.69;;;3.26;100.00
22862;BME280;11598;50.652;6.172;2023-04-25T04:05:48;95899.94;;;3.22;100.00
22862;BME280;11598;50.652;6.172;2023-04-25T04:15:49;95907.81;;;3.18;100.00
22862;BME280;11598;50.652;6.172;2023-04-25T04:25:49;95911.44;;;3.14;100.00
22862;BME280;11598;50.652;6.172;2023-04-25T04:35:51;95917.50;;;3.13;100.00
22862;BME280;11598;50.652;6.172;2023-04-25T04:45:52;95929.59;;;3.11;100.00
22862;BME280;11598;50.652;6.172;2023-04-25T04:55:56;95934.72;;;3.11;100.00
22862;BME280;11598;50.652;6.172;2023-04-25T05:05:56;95948.13;;;3.16;100.00
22862;BME280;11598;50.652;6.172;2023-04-25T05:15:56;95970.00;;;3.24;100.00
22862;BME280;11598;50.652;6.172;2023-04-25T05:25:57;95972.31;;;3.28;100.00
22862;BME280;11598;50.652;6.172;2023-04-25T05:35:57;95978.47;;;3.26;100.00
22862;BME280;11598;50.652;6.172;2023-04-25T05:45:58;95989.78;;;3.06;100.00
22862;BME280;11598;50.652;6.172;2023-04-25T05:55:58;95990.41;;;2.93;100.00
22862;BME280;11598;50.652;6.172;2023-04-25T06:05:58;96009.03;;;2.97;100.00
22862;BME280;11598;50.652;6.172;2023-04-25T06:15:59;96013.03;;;3.03;100.00
22862;BME280;11598;50.652;6.172;2023-04-25T06:25:59;96022.69;;;3.31;100.00
22862;BME280;11598;50.652;6.172;2023-04-25T06:36:00;96029.00;;;3.73;100.00
22862;BME280;11598;50.652;6.172;2023-04-25T06:46:00;96031.91;;;3.83;100.00
22862;BME280;11598;50.652;6.172;2023-04-25T06:56:00;96039.28;;;3.73;100.00
22862;BME280;11598;50.652;6.172;2023-04-25T07:06:01;96044.59;;;3.70;100.00
22862;BME280;11598;50.652;6.172;2023-04-25T07:16:01;96051.59;;;3.50;100.00
22862;BME280;11598;50.652;6.172;2023-04-25T07:26:02;96063.41;;;3.70;100.00
22862;BME280;11598;50.652;6.172;2023-04-25T07:36:02;96079.91;;;3.82;100.00
22862;BME280;11598;50.652;6.172;2023-04-25T07:46:03;96086.13;;;3.94;100.00
22862;BME280;11598;50.652;6.172;2023-04-25T07:56:04;96095.16;;;4.17;100.00
22862;BME280;11598;50.652;6.172;2023-04-25T08:06:04;96118.47;;;4.14;100.00
22862;BME280;11598;50.652;6.172;2023-04-25T08:16:05;96134.03;;;3.95;100.00
22862;BME280;11598;50.652;6.172;2023-04-25T08:26:05;96156.06;;;3.67;100.00
22862;BME280;11598;50.652;6.172;2023-04-25T08:36:06;96171.19;;;3.38;100.00
22862;BME280;11598;50.652;6.172;2023-04-25T08:46:07;96189.59;;;3.13;100.00
22862;BME280;11598;50.652;6.172;2023-04-25T08:56:10;96196.41;;;3.65;100.00
22862;BME280;11598;50.652;6.172;2023-04-25T09:06:13;96194.47;;;4.35;100.00
22862;BME280;11598;50.652;6.172;2023-04-25T09:16:14;96198.13;;;4.93;100.00
22862;BME280;11598;50.652;6.172;2023-04-25T09:26:19;96214.72;;;5.34;100.00
22862;BME280;11598;50.652;6.172;2023-04-25T09:36:26;96215.47;;;5.80;100.00
22862;BME280;11598;50.652;6.172;2023-04-25T09:46:33;96242.13;;;5.50;99.81
22862;BME280;11598;50.652;6.172;2023-04-25T09:56:36;96256.09;;;5.00;100.00
22862;BME280;11598;50.652;6.172;2023-04-25T10:06:40;96274.78;;;5.04;100.00
22862;BME280;11598;50.652;6.172;2023-04-25T10:16:42;96272.84;;;5.23;99.36
22862;BME280;11598;50.652;6.172;2023-04-25T10:26:43;96268.56;;;5.08;98.83
22862;BME280;11598;50.652;6.172;2023-04-25T10:36:49;96274.47;;;4.78;97.12
22862;BME280;11598;50.652;6.172;2023-04-25T10:46:51;96283.16;;;4.60;97.16
22862;BME280;11598;50.652;6.172;2023-04-25T10:56:51;96290.47;;;4.83;97.51
22862;BME280;11598;50.652;6.172;2023-04-25T11:17:02;96278.78;;;5.70;98.30
22862;BME280;11598;50.652;6.172;2023-04-25T11:27:03;96274.19;;;6.05;97.75
22862;BME280;11598;50.652;6.172;2023-04-25T11:37:05;96268.56;;;6.13;93.93
22862;BME280;11598;50.652;6.172;2023-04-25T11:47:06;96276.94;;;6.60;93.35
22862;BME280;11598;50.652;6.172;2023-04-25T11:57:07;96286.03;;;6.65;91.00
22862;BME280;11598;50.652;6.172;2023-04-25T12:07:09;96307.72;;;6.20;90.59
22862;BME280;11598;50.652;6.172;2023-04-25T12:17:10;96317.31;;;5.57;89.92
22862;BME280;11598;50.652;6.172;2023-04-25T12:27:14;96321.47;;;5.14;90.34
22862;BME280;11598;50.652;6.172;2023-04-25T12:37:20;96332.66;;;5.13;90.32
22862;BME280;11598;50.652;6.172;2023-04-25T12:47:20;96338.28;;;5.51;88.99
22862;BME280;11598;50.652;6.172;2023-04-25T12:57:21;96339.34;;;5.93;86.51
22862;BME280;11598;50.652;6.172;2023-04-25T13:07:21;96344.59;;;6.36;87.46
22862;BME280;11598;50.652;6.172;2023-04-25T13:17:22;96327.16;;;6.83;82.03
22862;BME280;11598;50.652;6.172;2023-04-25T13:27:22;96348.66;;;6.54;79.96
22862;BME280;11598;50.652;6.172;2023-04-25T13:37:22;96343.38;;;6.27;76.64
22862;BME280;11598;50.652;6.172;2023-04-25T13:47:25;96338.25;;;5.97;75.36
22862;BME280;11598;50.652;6.172;2023-04-25T13:57:26;96328.34;;;6.20;76.06
22862;BME280;11598;50.652;6.172;2023-04-25T14:07:26;96338.59;;;6.78;73.92
22862;BME280;11598;50.652;6.172;2023-04-25T14:17:27;96341.25;;;6.34;72.68
22862;BME280;11598;50.652;6.172;2023-04-25T14:27:27;96367.44;;;5.51;72.01
22862;BME280;11598;50.652;6.172;2023-04-25T14:37:28;96379.00;;;4.81;76.15
22862;BME280;11598;50.652;6.172;2023-04-25T14:47:28;96381.53;;;4.65;79.44
22862;BME280;11598;50.652;6.172;2023-04-25T14:57:28;96384.81;;;4.84;79.66
22862;BME280;11598;50.652;6.172;2023-04-25T15:07:29;96384.78;;;5.18;79.96
22862;BME280;11598;50.652;6.172;2023-04-25T15:17:29;96391.44;;;5.68;80.71
22862;BME280;11598;50.652;6.172;2023-04-25T15:27:31;96397.16;;;6.05;80.08
22862;BME280;11598;50.652;6.172;2023-04-25T15:37:32;96403.38;;;6.31;78.41
22862;BME280;11598;50.652;6.172;2023-04-25T15:47:36;96401.31;;;5.91;76.67
22862;BME280;11598;50.652;6.172;2023-04-25T15:57:37;96410.63;;;5.48;77.84
22862;BME280;11598;50.652;6.172;2023-04-25T16:07:41;96419.50;;;5.11;81.12
22862;BME280;11598;50.652;6.172;2023-04-25T16:17:42;96419.81;;;5.04;83.32
22862;BME280;11598;50.652;6.172;2023-04-25T16:27:42;96415.31;;;5.24;84.52
22862;BME280;11598;50.652;6.172;2023-04-25T16:37:43;96416.84;;;5.44;84.66
22862;BME280;11598;50.652;6.172;2023-04-25T16:47:43;96422.75;;;5.46;84.83
22862;BME280;11598;50.652;6.172;2023-04-25T16:57:44;96413.34;;;5.45;84.99
22862;BME280;11598;50.652;6.172;2023-04-25T17:07:44;96410.38;;;5.83;84.63
22862;BME280;11598;50.652;6.172;2023-04-25T17:17:45;96428.59;;;6.11;82.77
22862;BME280;11598;50.652;6.172;2023-04-25T17:27:45;96431.84;;;5.99;82.23
22862;BME280;11598;50.652;6.172;2023-04-25T17:37:45;96439.41;;;5.70;82.18
22862;BME280;11598;50.652;6.172;2023-04-25T17:47:46;96449.41;;;5.45;81.53
22862;BME280;11598;50.652;6.172;2023-04-25T17:57:46;96452.38;;;5.21;80.56
22862;BME280;11598;50.652;6.172;2023-04-25T18:07:47;96454.84;;;5.07;80.24
22862;BME280;11598;50.652;6.172;2023-04-25T18:17:47;96468.78;;;4.87;79.37
22862;BME280;11598;50.652;6.172;2023-04-25T18:27:48;96472.75;;;4.59;79.32
22862;BME280;11598;50.652;6.172;2023-04-25T18:37:49;96491.44;;;4.45;80.06
22862;BME280;11598;50.652;6.172;2023-04-25T18:47:50;96493.66;;;4.36;79.50
22862;BME280;11598;50.652;6.172;2023-04-25T18:57:50;96495.53;;;4.32;79.64
22862;BME280;11598;50.652;6.172;2023-04-25T19:07:50;96512.03;;;4.28;80.54
22862;BME280;11598;50.652;6.172;2023-04-25T19:17:51;96530.84;;;4.29;82.39
22862;BME280;11598;50.652;6.172;2023-04-25T19:27:51;96532.72;;;4.25;83.69
22862;BME280;11598;50.652;6.172;2023-04-25T19:37:52;96533.88;;;4.19;84.81
22862;BME280;11598;50.652;6.172;2023-04-25T19:47:53;96535.72;;;3.98;83.70
22862;BME280;11598;50.652;6.172;2023-04-25T19:57:54;96552.03;;;3.78;82.76
22862;BME280;11598;50.652;6.172;2023-04-25T20:07:54;96553.59;;;3.64;82.52
22862;BME280;11598;50.652;6.172;2023-04-25T20:17:55;96565.94;;;3.55;82.13
22862;BME280;11598;50.652;6.172;2023-04-25T20:27:55;96577.47;;;3.47;81.73
22862;BME280;11598;50.652;6.172;2023-04-25T20:37:55;96573.56;;;3.38;81.53
22862;BME280;11598;50.652;6.172;2023-04-25T20:47:56;96578.97;;;3.32;81.15
22862;BME280;11598;50.652;6.172;2023-04-25T20:57:57;96582.63;;;3.26;81.01
22862;BME280;11598;50.652;6.172;2023-04-25T21:07:58;96580.97;;;3.25;80.82
22862;BME280;11598;50.652;6.172;2023-04-25T21:17:58;96584.38;;;3.26;81.28
22862;BME280;11598;50.652;6.172;2023-04-25T21:27:59;96588.59;;;3.27;81.45
22862;BME280;11598;50.652;6.172;2023-04-25T21:38:01;96594.34;;;3.13;80.68
22862;BME280;11598;50.652;6.172;2023-04-25T21:48:01;96595.59;;;3.03;81.30
22862;BME280;11598;50.652;6.172;2023-04-25T21:58:02;96595.88;;;2.96;81.61
22862;BME280;11598;50.652;6.172;2023-04-25T22:08:02;96603.88;;;2.89;82.04
22862;BME280;11598;50.652;6.172;2023-04-25T22:18:03;96615.44;;;2.79;82.63
22862;BME280;11598;50.652;6.172;2023-04-25T22:28:04;96621.56;;;2.74;83.77
22862;BME280;11598;50.652;6.172;2023-04-25T22:38:04;96630.56;;;2.64;84.26
22862;BME280;11598;50.652;6.172;2023-04-25T22:48:05;96631.63;;;2.37;85.38
22862;BME280;11598;50.652;6.172;2023-04-25T22:58:06;96635.59;;;2.00;86.50
22862;BME280;11598;50.652;6.172;2023-04-25T23:08:09;96637.75;;;1.65;87.85
22862;BME280;11598;50.652;6.172;2023-04-25T23:18:09;96639.94;;;1.27;89.22
22862;BME280;11598;50.652;6.172;2023-04-25T23:28:10;96642.38;;;1.05;90.26
22862;BME280;11598;50.652;6.172;2023-04-25T23:38:10;96651.81;;;1.03;90.62
22862;BME280;11598;50.652;6.172;2023-04-25T23:48:11;96656.78;;;0.82;91.24
22862;BME280;11598;50.652;6.172;2023-04-25T23:58:12;96652.84;;;0.72;91.88
